sensor_id;sensor_type;location;lat;lon;timestamp;temperature;humidity
11284;DHT22;5698;47.332;11.180;2023-04-03T00:01:47;0.70;99.90
11284;DHT22;5698;47.332;11.180;2023-04-03T00:04:14;0.70;99.90
11284;DHT22;5698;47.332;11.180;2023-04-03T00:06:41;0.60;99.90
11284;DHT22;5698;47.332;11.180;2023-04-03T00:09:08;0.60;99.90
11284;DHT22;5698;47.332;11.180;2023-04-03T00:11:37;0.60;99.90
11284;DHT22;5698;47.332;11.180;2023-04-03T00:14:04;0.60;99.90
11284;DHT22;5698;47.332;11.180;2023-04-03T00:16:31;0.60;99.90
11284;DHT22;5698;47.332;11.180;2023-04-03T00:18:57;0.60;99.90
11284;DHT22;5698;47.332;11.180;2023-04-03T00:21:24;0.60;99.90
11284;DHT22;5698;47.332;11.180;2023-04-03T00:23:51;0.50;99.90
11284;DHT22;5698;47.332;11.180;2023-04-03T00:26:18;0.50;99.90
11284;DHT22;5698;47.332;11.180;2023-04-03T00:28:47;0.50;99.90
11284;DHT22;5698;47.332;11.180;2023-04-03T00:31:15;0.50;99.90
11284;DHT22;5698;47.332;11.180;2023-04-03T00:33:42;0.50;99.90
11284;DHT22;5698;47.332;11.180;2023-04-03T00:36:10;0.50;99.90
11284;DHT22;5698;47.332;11.180;2023-04-03T00:38:37;0.40;99.90
11284;DHT22;5698;47.332;11.180;2023-04-03T00:41:04;0.40;99.90
11284;DHT22;5698;47.332;11.180;2023-04-03T00:43:31;0.40;99.90
11284;DHT22;5698;47.332;11.180;2023-04-03T00:45:59;0.40;99.90
11284;DHT22;5698;47.332;11.180;2023-04-03T00:48:30;0.30;99.90
11284;DHT22;5698;47.332;11.180;2023-04-03T00:50:58;0.30;99.90
11284;DHT22;5698;47.332;11.180;2023-04-03T00:53:29;0.30;99.90
11284;DHT22;5698;47.332;11.180;2023-04-03T00:55:57;0.30;99.90
11284;DHT22;5698;47.332;11.180;2023-04-03T00:58:28;0.30;99.90
11284;DHT22;5698;47.332;11.180;2023-04-03T01:01:00;0.30;99.90
11284;DHT22;5698;47.332;11.180;2023-04-03T01:03:30;0.30;99.90
11284;DHT22;5698;47.332;11.180;2023-04-03T01:05:58;0.30;99.90
11284;DHT22;5698;47.332;11.180;2023-04-03T01:08:25;0.30;99.90
11284;DHT22;5698;47.332;11.180;2023-04-03T01:10:52;0.30;99.90
11284;DHT22;5698;47.332;11.180;2023-04-03T01:13:24;0.30;99.90
11284;DHT22;5698;47.332;11.180;2023-04-03T01:15:52;0.20;99.90
11284;DHT22;5698;47.332;11.180;2023-04-03T01:18:20;0.30;99.90
11284;DHT22;5698;47.332;11.180;2023-04-03T01:23:54;0.20;99.90
11284;DHT22;5698;47.332;11.180;2023-04-03T01:26:25;0.10;99.90
11284;DHT22;5698;47.332;11.180;2023-04-03T01:28:54;0.00;99.90
11284;DHT22;5698;47.332;11.180;2023-04-03T01:31:25;0.00;99.90
11284;DHT22;5698;47.332;11.180;2023-04-03T01:33:54;0.00;99.90
11284;DHT22;5698;47.332;11.180;2023-04-03T01:36:23;-0.10;99.90
11284;DHT22;5698;47.332;11.180;2023-04-03T01:38:51;-0.10;99.90
11284;DHT22;5698;47.332;11.180;2023-04-03T01:41:19;-0.10;99.90
11284;DHT22;5698;47.332;11.180;2023-04-03T01:43:47;-0.10;99.90
11284;DHT22;5698;47.332;11.180;2023-04-03T01:46:14;-0.10;99.90
11284;DHT22;5698;47.332;11.180;2023-04-03T01:48:42;-0.10;99.90
11284;DHT22;5698;47.332;11.180;2023-04-03T01:51:10;-0.10;99.90
11284;DHT22;5698;47.332;11.180;2023-04-03T01:53:37;-0.10;99.90
11284;DHT22;5698;47.332;11.180;2023-04-03T01:56:05;-0.20;99.90
11284;DHT22;5698;47.332;11.180;2023-04-03T01:58:32;-0.20;99.90
11284;DHT22;5698;47.332;11.180;2023-04-03T02:00:59;-0.20;99.90
11284;DHT22;5698;47.332;11.180;2023-04-03T02:03:26;-0.20;99.90
11284;DHT22;5698;47.332;11.180;2023-04-03T02:05:53;-0.20;99.90
11284;DHT22;5698;47.332;11.180;2023-04-03T02:08:21;-0.20;99.90
11284;DHT22;5698;47.332;11.180;2023-04-03T02:10:49;-0.10;99.90
11284;DHT22;5698;47.332;11.180;2023-04-03T02:13:17;-0.20;99.90
11284;DHT22;5698;47.332;11.180;2023-04-03T02:15:44;-0.20;99.90
11284;DHT22;5698;47.332;11.180;2023-04-03T02:18:12;-0.30;99.90
11284;DHT22;5698;47.332;11.180;2023-04-03T02:20:39;-0.20;99.90
11284;DHT22;5698;47.332;11.180;2023-04-03T02:23:06;-0.30;99.90
11284;DHT22;5698;47.332;11.180;2023-04-03T02:25:34;-0.40;99.90
11284;DHT22;5698;47.332;11.180;2023-04-03T02:28:01;-0.40;99.90
11284;DHT22;5698;47.332;11.180;2023-04-03T02:30:28;-0.40;99.90
11284;DHT22;5698;47.332;11.180;2023-04-03T02:32:55;-0.40;99.90
11284;DHT22;5698;47.332;11.180;2023-04-03T02:35:22;-0.40;99.90
11284;DHT22;5698;47.332;11.180;2023-04-03T02:37:49;-0.40;99.90
11284;DHT22;5698;47.332;11.180;2023-04-03T02:40:16;-0.30;99.90
11284;DHT22;5698;47.332;11.180;2023-04-03T02:42:45;-0.40;99.90
11284;DHT22;5698;47.332;11.180;2023-04-03T02:45:11;-0.40;99.90
11284;DHT22;5698;47.332;11.180;2023-04-03T02:47:38;-0.40;99.90
11284;DHT22;5698;47.332;11.180;2023-04-03T02:50:07;-0.50;99.90
11284;DHT22;5698;47.332;11.180;2023-04-03T02:52:34;-0.50;99.90
11284;DHT22;5698;47.332;11.180;2023-04-03T02:55:01;-0.40;99.90
11284;DHT22;5698;47.332;11.180;2023-04-03T02:57:29;-0.40;99.90
11284;DHT22;5698;47.332;11.180;2023-04-03T02:59:57;-0.40;99.90
11284;DHT22;5698;47.332;11.180;2023-04-03T03:02:24;-0.40;99.90
11284;DHT22;5698;47.332;11.180;2023-04-03T03:04:51;-0.40;99.90
11284;DHT22;5698;47.332;11.180;2023-04-03T03:07:18;-0.30;99.90
11284;DHT22;5698;47.332;11.180;2023-04-03T03:09:45;-0.40;99.90
11284;DHT22;5698;47.332;11.180;2023-04-03T03:12:12;-0.40;99.90
11284;DHT22;5698;47.332;11.180;2023-04-03T03:14:39;-0.30;99.90
11284;DHT22;5698;47.332;11.180;2023-04-03T03:17:07;-0.40;99.90
11284;DHT22;5698;47.332;11.180;2023-04-03T03:19:34;-0.40;99.90
11284;DHT22;5698;47.332;11.180;2023-04-03T03:22:01;-0.40;99.90
11284;DHT22;5698;47.332;11.180;2023-04-03T03:24:28;-0.40;99.90
11284;DHT22;5698;47.332;11.180;2023-04-03T03:26:55;-0.40;99.90
11284;DHT22;5698;47.332;11.180;2023-04-03T03:29:22;-0.40;99.90
11284;DHT22;5698;47.332;11.180;2023-04-03T03:31:49;-0.50;99.90
11284;DHT22;5698;47.332;11.180;2023-04-03T03:34:17;-0.50;99.90
11284;DHT22;5698;47.332;11.180;2023-04-03T03:36:44;-0.60;99.90
11284;DHT22;5698;47.332;11.180;2023-04-03T03:39:12;-0.50;99.90
11284;DHT22;5698;47.332;11.180;2023-04-03T03:41:39;-0.50;99.90
11284;DHT22;5698;47.332;11.180;2023-04-03T03:44:06;-0.60;99.90
11284;DHT22;5698;47.332;11.180;2023-04-03T03:46:33;-0.60;99.90
11284;DHT22;5698;47.332;11.180;2023-04-03T03:49:00;-0.60;99.90
11284;DHT22;5698;47.332;11.180;2023-04-03T03:51:29;-0.60;99.90
11284;DHT22;5698;47.332;11.180;2023-04-03T03:53:56;-0.60;99.90
11284;DHT22;5698;47.332;11.180;2023-04-03T03:56:23;-0.50;99.90
11284;DHT22;5698;47.332;11.180;2023-04-03T03:58:50;-0.60;99.90
11284;DHT22;5698;47.332;11.180;2023-04-03T04:01:18;-0.60;99.90
11284;DHT22;5698;47.332;11.180;2023-04-03T04:03:45;-0.70;99.90
11284;DHT22;5698;47.332;11.180;2023-04-03T04:06:12;-0.60;99.90
11284;DHT22;5698;47.332;11.180;2023-04-03T04:08:41;-0.60;99.90
11284;DHT22;5698;47.332;11.180;2023-04-03T04:11:08;-0.60;99.90
11284;DHT22;5698;47.332;11.180;2023-04-03T04:13:35;-0.60;99.90
11284;DHT22;5698;47.332;11.180;2023-04-03T04:16:02;-0.70;99.90
11284;DHT22;5698;47.332;11.180;2023-04-03T04:18:30;-0.80;99.90
11284;DHT22;5698;47.332;11.180;2023-04-03T04:20:56;-0.70;99.90
11284;DHT22;5698;47.332;11.180;2023-04-03T04:23:23;-0.70;99.90
11284;DHT22;5698;47.332;11.180;2023-04-03T04:25:52;-0.80;99.90
11284;DHT22;5698;47.332;11.180;2023-04-03T04:28:19;-0.80;99.90
11284;DHT22;5698;47.332;11.180;2023-04-03T04:30:46;-0.80;99.90
11284;DHT22;5698;47.332;11.180;2023-04-03T04:33:13;-0.90;99.90
11284;DHT22;5698;47.332;11.180;2023-04-03T04:35:42;-0.90;99.90
11284;DHT22;5698;47.332;11.180;2023-04-03T04:38:08;-0.80;99.90
11284;DHT22;5698;47.332;11.180;2023-04-03T04:40:36;-0.90;99.90
11284;DHT22;5698;47.332;11.180;2023-04-03T04:43:04;-1.00;99.90
11284;DHT22;5698;47.332;11.180;2023-04-03T04:45:31;-1.00;99.90
11284;DHT22;5698;47.332;11.180;2023-04-03T04:47:58;-1.00;99.90
11284;DHT22;5698;47.332;11.180;2023-04-03T04:50:25;-0.90;99.90
11284;DHT22;5698;47.332;11.180;2023-04-03T04:52:52;-1.00;99.90
11284;DHT22;5698;47.332;11.180;2023-04-03T04:55:20;-1.10;99.90
11284;DHT22;5698;47.332;11.180;2023-04-03T04:57:46;-1.10;99.90
11284;DHT22;5698;47.332;11.180;2023-04-03T05:00:16;-1.10;99.90
11284;DHT22;5698;47.332;11.180;2023-04-03T05:02:43;-1.10;99.90
11284;DHT22;5698;47.332;11.180;2023-04-03T05:05:10;-1.10;99.90
11284;DHT22;5698;47.332;11.180;2023-04-03T05:07:37;-1.10;99.90
11284;DHT22;5698;47.332;11.180;2023-04-03T05:10:05;-1.10;99.90
11284;DHT22;5698;47.332;11.180;2023-04-03T05:12:32;-1.20;99.90
11284;DHT22;5698;47.332;11.180;2023-04-03T05:15:00;-1.10;99.90
11284;DHT22;5698;47.332;11.180;2023-04-03T05:17:28;-1.10;99.90
11284;DHT22;5698;47.332;11.180;2023-04-03T05:19:55;-1.10;99.90
11284;DHT22;5698;47.332;11.180;2023-04-03T05:22:22;-1.10;99.90
11284;DHT22;5698;47.332;11.180;2023-04-03T05:24:49;-1.00;99.90
11284;DHT22;5698;47.332;11.180;2023-04-03T05:27:16;-0.90;99.90
11284;DHT22;5698;47.332;11.180;2023-04-03T05:29:43;-1.00;99.90
11284;DHT22;5698;47.332;11.180;2023-04-03T05:32:10;-1.00;99.90
11284;DHT22;5698;47.332;11.180;2023-04-03T05:34:38;-0.90;99.90
11284;DHT22;5698;47.332;11.180;2023-04-03T05:37:05;-1.00;99.90
11284;DHT22;5698;47.332;11.180;2023-04-03T05:39:33;-1.00;99.90
11284;DHT22;5698;47.332;11.180;2023-04-03T05:42:00;-0.90;99.90
11284;DHT22;5698;47.332;11.180;2023-04-03T05:44:27;-1.00;99.90
11284;DHT22;5698;47.332;11.180;2023-04-03T05:46:54;-1.00;99.90
11284;DHT22;5698;47.332;11.180;2023-04-03T05:49:21;-0.90;99.90
11284;DHT22;5698;47.332;11.180;2023-04-03T05:51:49;-0.90;99.90
11284;DHT22;5698;47.332;11.180;2023-04-03T05:54:19;-0.90;99.90
11284;DHT22;5698;47.332;11.180;2023-04-03T05:56:48;-1.00;99.90
11284;DHT22;5698;47.332;11.180;2023-04-03T05:59:16;-0.90;99.90
11284;DHT22;5698;47.332;11.180;2023-04-03T06:01:43;-0.90;99.90
11284;DHT22;5698;47.332;11.180;2023-04-03T06:04:10;-0.80;99.90
11284;DHT22;5698;47.332;11.180;2023-04-03T06:06:46;-0.90;99.90
11284;DHT22;5698;47.332;11.180;2023-04-03T06:09:15;-0.80;99.90
11284;DHT22;5698;47.332;11.180;2023-04-03T06:11:42;-0.70;99.90
11284;DHT22;5698;47.332;11.180;2023-04-03T06:14:10;-0.80;99.90
11284;DHT22;5698;47.332;11.180;2023-04-03T06:16:37;-0.70;99.90
11284;DHT22;5698;47.332;11.180;2023-04-03T06:19:05;-0.70;99.90
11284;DHT22;5698;47.332;11.180;2023-04-03T06:21:32;-0.60;99.90
11284;DHT22;5698;47.332;11.180;2023-04-03T06:23:59;-0.60;99.90
11284;DHT22;5698;47.332;11.180;2023-04-03T06:26:28;-0.60;99.90
11284;DHT22;5698;47.332;11.180;2023-04-03T06:28:55;-0.60;99.90
11284;DHT22;5698;47.332;11.180;2023-04-03T06:31:22;-0.60;99.90
11284;DHT22;5698;47.332;11.180;2023-04-03T06:33:49;-0.50;99.90
11284;DHT22;5698;47.332;11.180;2023-04-03T06:36:18;-0.40;99.90
11284;DHT22;5698;47.332;11.180;2023-04-03T06:38:46;-0.40;99.90
11284;DHT22;5698;47.332;11.180;2023-04-03T06:41:14;-0.40;99.90
11284;DHT22;5698;47.332;11.180;2023-04-03T06:43:43;-0.30;99.90
11284;DHT22;5698;47.332;11.180;2023-04-03T06:46:13;-0.30;99.90
11284;DHT22;5698;47.332;11.180;2023-04-03T06:48:42;-0.20;99.90
11284;DHT22;5698;47.332;11.180;2023-04-03T06:51:16;-0.10;99.90
11284;DHT22;5698;47.332;11.180;2023-04-03T06:53:44;0.00;99.90
11284;DHT22;5698;47.332;11.180;2023-04-03T06:56:11;0.00;99.90
11284;DHT22;5698;47.332;11.180;2023-04-03T06:58:38;0.20;99.90
11284;DHT22;5698;47.332;11.180;2023-04-03T07:01:07;0.20;99.90
11284;DHT22;5698;47.332;11.180;2023-04-03T07:03:35;0.30;99.90
11284;DHT22;5698;47.332;11.180;2023-04-03T07:06:02;0.20;99.90
11284;DHT22;5698;47.332;11.180;2023-04-03T07:08:29;0.20;99.90
11284;DHT22;5698;47.332;11.180;2023-04-03T07:10:56;0.30;99.90
11284;DHT22;5698;47.332;11.180;2023-04-03T07:13:23;0.30;99.90
11284;DHT22;5698;47.332;11.180;2023-04-03T07:15:50;0.40;99.90
11284;DHT22;5698;47.332;11.180;2023-04-03T07:18:19;0.40;99.90
11284;DHT22;5698;47.332;11.180;2023-04-03T07:20:46;0.40;99.90
11284;DHT22;5698;47.332;11.180;2023-04-03T07:23:14;0.40;99.90
11284;DHT22;5698;47.332;11.180;2023-04-03T07:25:43;0.40;99.90
11284;DHT22;5698;47.332;11.180;2023-04-03T07:28:10;0.50;99.90
11284;DHT22;5698;47.332;11.180;2023-04-03T07:30:43;0.60;99.90
11284;DHT22;5698;47.332;11.180;2023-04-03T07:33:10;0.60;99.90
11284;DHT22;5698;47.332;11.180;2023-04-03T07:35:40;0.70;99.90
11284;DHT22;5698;47.332;11.180;2023-04-03T07:38:07;0.70;99.90
11284;DHT22;5698;47.332;11.180;2023-04-03T07:40:35;0.70;99.90
11284;DHT22;5698;47.332;11.180;2023-04-03T07:43:03;0.80;99.90
11284;DHT22;5698;47.332;11.180;2023-04-03T07:45:31;0.90;99.90
11284;DHT22;5698;47.332;11.180;2023-04-03T07:47:58;0.90;99.90
11284;DHT22;5698;47.332;11.180;2023-04-03T07:50:25;1.00;99.90
11284;DHT22;5698;47.332;11.180;2023-04-03T07:52:54;1.00;99.90
11284;DHT22;5698;47.332;11.180;2023-04-03T07:55:23;1.10;99.90
11284;DHT22;5698;47.332;11.180;2023-04-03T07:57:50;1.20;99.90
11284;DHT22;5698;47.332;11.180;2023-04-03T08:00:18;1.30;99.90
11284;DHT22;5698;47.332;11.180;2023-04-03T08:02:45;1.30;99.90
11284;DHT22;5698;47.332;11.180;2023-04-03T08:05:16;1.40;99.90
11284;DHT22;5698;47.332;11.180;2023-04-03T08:07:43;1.50;99.90
11284;DHT22;5698;47.332;11.180;2023-04-03T08:10:11;1.70;99.90
11284;DHT22;5698;47.332;11.180;2023-04-03T08:12:38;1.90;99.90
11284;DHT22;5698;47.332;11.180;2023-04-03T08:15:07;2.00;99.90
11284;DHT22;5698;47.332;11.180;2023-04-03T08:17:34;2.10;99.90
11284;DHT22;5698;47.332;11.180;2023-04-03T08:20:01;2.20;99.90
11284;DHT22;5698;47.332;11.180;2023-04-03T08:22:29;2.30;99.90
11284;DHT22;5698;47.332;11.180;2023-04-03T08:24:56;2.30;99.90
11284;DHT22;5698;47.332;11.180;2023-04-03T08:27:25;2.30;99.90
11284;DHT22;5698;47.332;11.180;2023-04-03T08:29:53;2.40;99.90
11284;DHT22;5698;47.332;11.180;2023-04-03T08:32:20;2.50;99.90
11284;DHT22;5698;47.332;11.180;2023-04-03T08:34:47;2.50;99.90
11284;DHT22;5698;47.332;11.180;2023-04-03T08:37:14;2.60;99.90
11284;DHT22;5698;47.332;11.180;2023-04-03T08:39:41;2.60;99.90
11284;DHT22;5698;47.332;11.180;2023-04-03T08:42:16;2.70;99.90
11284;DHT22;5698;47.332;11.180;2023-04-03T08:44:51;2.80;99.90
11284;DHT22;5698;47.332;11.180;2023-04-03T08:47:26;2.90;99.90
11284;DHT22;5698;47.332;11.180;2023-04-03T08:49:58;2.80;99.90
11284;DHT22;5698;47.332;11.180;2023-04-03T08:52:34;2.90;99.90
11284;DHT22;5698;47.332;11.180;2023-04-03T08:55:04;2.90;99.90
11284;DHT22;5698;47.332;11.180;2023-04-03T08:57:35;3.00;99.90
11284;DHT22;5698;47.332;11.180;2023-04-03T09:00:09;3.10;99.90
11284;DHT22;5698;47.332;11.180;2023-04-03T09:02:44;3.20;99.90
11284;DHT22;5698;47.332;11.180;2023-04-03T09:05:14;3.50;99.90
11284;DHT22;5698;47.332;11.180;2023-04-03T09:07:44;3.90;99.90
11284;DHT22;5698;47.332;11.180;2023-04-03T09:10:14;4.30;99.90
11284;DHT22;5698;47.332;11.180;2023-04-03T09:12:44;4.60;99.90
11284;DHT22;5698;47.332;11.180;2023-04-03T09:15:18;4.90;99.90
11284;DHT22;5698;47.332;11.180;2023-04-03T09:17:57;5.30;99.90
11284;DHT22;5698;47.332;11.180;2023-04-03T09:20:33;5.70;99.90
11284;DHT22;5698;47.332;11.180;2023-04-03T09:23:10;6.20;99.90
11284;DHT22;5698;47.332;11.180;2023-04-03T09:25:41;6.70;99.90
11284;DHT22;5698;47.332;11.180;2023-04-03T09:28:09;7.00;99.90
11284;DHT22;5698;47.332;11.180;2023-04-03T09:30:39;7.40;99.90
11284;DHT22;5698;47.332;11.180;2023-04-03T09:33:07;7.80;99.90
11284;DHT22;5698;47.332;11.180;2023-04-03T09:35:36;8.20;99.90
11284;DHT22;5698;47.332;11.180;2023-04-03T09:38:16;8.60;99.90
11284;DHT22;5698;47.332;11.180;2023-04-03T09:40:45;8.90;99.90
11284;DHT22;5698;47.332;11.180;2023-04-03T09:43:25;9.10;99.90
11284;DHT22;5698;47.332;11.180;2023-04-03T09:45:54;9.30;99.90
11284;DHT22;5698;47.332;11.180;2023-04-03T09:48:24;9.30;99.60
11284;DHT22;5698;47.332;11.180;2023-04-03T09:50:57;9.40;99.90
11284;DHT22;5698;47.332;11.180;2023-04-03T09:53:31;9.70;99.90
11284;DHT22;5698;47.332;11.180;2023-04-03T09:55:58;9.90;99.60
11284;DHT22;5698;47.332;11.180;2023-04-03T09:58:27;10.00;97.50
11284;DHT22;5698;47.332;11.180;2023-04-03T10:00:58;9.90;96.70
11284;DHT22;5698;47.332;11.180;2023-04-03T10:03:29;9.90;97.10
11284;DHT22;5698;47.332;11.180;2023-04-03T10:05:57;9.80;97.30
11284;DHT22;5698;47.332;11.180;2023-04-03T10:08:27;9.90;97.60
11284;DHT22;5698;47.332;11.180;2023-04-03T10:11:13;10.10;96.50
11284;DHT22;5698;47.332;11.180;2023-04-03T10:13:54;10.40;97.10
11284;DHT22;5698;47.332;11.180;2023-04-03T10:16:27;10.70;96.20
11284;DHT22;5698;47.332;11.180;2023-04-03T10:19:31;11.00;95.50
11284;DHT22;5698;47.332;11.180;2023-04-03T10:22:01;10.90;94.00
11284;DHT22;5698;47.332;11.180;2023-04-03T10:24:36;10.70;93.70
11284;DHT22;5698;47.332;11.180;2023-04-03T10:27:09;10.50;93.70
11284;DHT22;5698;47.332;11.180;2023-04-03T10:29:41;10.30;93.90
11284;DHT22;5698;47.332;11.180;2023-04-03T10:32:43;10.10;92.80
11284;DHT22;5698;47.332;11.180;2023-04-03T10:35:18;9.40;93.00
11284;DHT22;5698;47.332;11.180;2023-04-03T10:37:58;9.10;95.40
11284;DHT22;5698;47.332;11.180;2023-04-03T10:40:33;9.10;94.60
11284;DHT22;5698;47.332;11.180;2023-04-03T10:43:06;9.00;94.00
11284;DHT22;5698;47.332;11.180;2023-04-03T10:45:52;9.00;94.50
11284;DHT22;5698;47.332;11.180;2023-04-03T10:48:33;9.10;94.70
11284;DHT22;5698;47.332;11.180;2023-04-03T10:51:16;9.00;94.10
11284;DHT22;5698;47.332;11.180;2023-04-03T10:53:51;8.80;93.00
11284;DHT22;5698;47.332;11.180;2023-04-03T10:56:24;8.70;93.80
11284;DHT22;5698;47.332;11.180;2023-04-03T10:58:56;8.40;93.00
11284;DHT22;5698;47.332;11.180;2023-04-03T11:01:29;8.20;93.30
11284;DHT22;5698;47.332;11.180;2023-04-03T11:04:00;7.90;94.40
11284;DHT22;5698;47.332;11.180;2023-04-03T11:06:35;7.80;94.10
11284;DHT22;5698;47.332;11.180;2023-04-03T11:09:07;7.70;93.50
11284;DHT22;5698;47.332;11.180;2023-04-03T11:11:36;7.60;93.40
11284;DHT22;5698;47.332;11.180;2023-04-03T11:14:09;7.40;93.10
11284;DHT22;5698;47.332;11.180;2023-04-03T11:16:45;7.20;93.60
11284;DHT22;5698;47.332;11.180;2023-04-03T11:19:18;7.10;94.10
11284;DHT22;5698;47.332;11.180;2023-04-03T11:21:54;6.90;93.40
11284;DHT22;5698;47.332;11.180;2023-04-03T11:24:25;6.50;93.10
11284;DHT22;5698;47.332;11.180;2023-04-03T11:26:55;6.20;95.00
11284;DHT22;5698;47.332;11.180;2023-04-03T11:29:24;6.00;95.10
11284;DHT22;5698;47.332;11.180;2023-04-03T11:32:09;5.90;95.30
11284;DHT22;5698;47.332;11.180;2023-04-03T11:34:41;5.80;95.70
11284;DHT22;5698;47.332;11.180;2023-04-03T11:37:15;5.80;95.60
11284;DHT22;5698;47.332;11.180;2023-04-03T11:39:51;5.80;95.80
11284;DHT22;5698;47.332;11.180;2023-04-03T11:42:28;5.80;96.60
11284;DHT22;5698;47.332;11.180;2023-04-03T11:45:27;5.80;96.40
11284;DHT22;5698;47.332;11.180;2023-04-03T11:47:57;5.80;96.10
11284;DHT22;5698;47.332;11.180;2023-04-03T11:50:42;5.80;95.30
11284;DHT22;5698;47.332;11.180;2023-04-03T11:53:32;5.50;95.90
11284;DHT22;5698;47.332;11.180;2023-04-03T11:56:27;5.50;95.60
11284;DHT22;5698;47.332;11.180;2023-04-03T11:59:15;5.40;95.40
11284;DHT22;5698;47.332;11.180;2023-04-03T12:01:46;5.50;96.10
11284;DHT22;5698;47.332;11.180;2023-04-03T12:04:15;5.60;96.60
11284;DHT22;5698;47.332;11.180;2023-04-03T12:10:17;5.90;96.40
11284;DHT22;5698;47.332;11.180;2023-04-03T12:13:00;5.80;95.40
11284;DHT22;5698;47.332;11.180;2023-04-03T12:15:49;5.90;96.40
11284;DHT22;5698;47.332;11.180;2023-04-03T12:18:43;5.90;96.40
11284;DHT22;5698;47.332;11.180;2023-04-03T12:21:12;5.90;95.90
11284;DHT22;5698;47.332;11.180;2023-04-03T12:23:58;5.70;96.10
11284;DHT22;5698;47.332;11.180;2023-04-03T12:26:32;5.50;95.80
11284;DHT22;5698;47.332;11.180;2023-04-03T12:29:04;5.40;95.90
11284;DHT22;5698;47.332;11.180;2023-04-03T12:31:42;5.40;96.60
11284;DHT22;5698;47.332;11.180;2023-04-03T12:34:24;5.30;96.80
11284;DHT22;5698;47.332;11.180;2023-04-03T12:37:01;5.00;96.30
11284;DHT22;5698;47.332;11.180;2023-04-03T12:39:53;4.60;96.10
11284;DHT22;5698;47.332;11.180;2023-04-03T12:42:44;4.30;96.70
11284;DHT22;5698;47.332;11.180;2023-04-03T12:45:20;4.10;97.10
11284;DHT22;5698;47.332;11.180;2023-04-03T12:47:49;4.00;97.30
11284;DHT22;5698;47.332;11.180;2023-04-03T12:50:21;4.00;97.90
11284;DHT22;5698;47.332;11.180;2023-04-03T12:52:53;4.00;97.30
11284;DHT22;5698;47.332;11.180;2023-04-03T12:55:22;4.10;98.20
11284;DHT22;5698;47.332;11.180;2023-04-03T12:57:50;4.20;98.30
11284;DHT22;5698;47.332;11.180;2023-04-03T13:00:34;4.10;97.90
11284;DHT22;5698;47.332;11.180;2023-04-03T13:03:06;4.10;97.70
11284;DHT22;5698;47.332;11.180;2023-04-03T13:05:44;4.20;98.20
11284;DHT22;5698;47.332;11.180;2023-04-03T13:08:13;4.20;98.20
11284;DHT22;5698;47.332;11.180;2023-04-03T13:10:52;4.10;98.20
11284;DHT22;5698;47.332;11.180;2023-04-03T13:13:21;4.20;98.50
11284;DHT22;5698;47.332;11.180;2023-04-03T13:15:50;4.10;98.10
11284;DHT22;5698;47.332;11.180;2023-04-03T13:18:23;4.20;98.40
11284;DHT22;5698;47.332;11.180;2023-04-03T13:20:51;4.10;98.10
11284;DHT22;5698;47.332;11.180;2023-04-03T13:23:19;4.10;98.10
11284;DHT22;5698;47.332;11.180;2023-04-03T13:25:49;4.00;98.10
11284;DHT22;5698;47.332;11.180;2023-04-03T13:28:21;3.90;98.10
11284;DHT22;5698;47.332;11.180;2023-04-03T13:30:59;3.80;98.70
11284;DHT22;5698;47.332;11.180;2023-04-03T13:33:31;3.70;98.90
11284;DHT22;5698;47.332;11.180;2023-04-03T13:36:03;3.70;98.60
11284;DHT22;5698;47.332;11.180;2023-04-03T13:38:32;3.70;98.80
11284;DHT22;5698;47.332;11.180;2023-04-03T13:41:02;3.70;98.90
11284;DHT22;5698;47.332;11.180;2023-04-03T13:43:33;3.70;98.80
11284;DHT22;5698;47.332;11.180;2023-04-03T13:46:05;3.90;98.30
11284;DHT22;5698;47.332;11.180;2023-04-03T13:48:50;3.90;97.20
11284;DHT22;5698;47.332;11.180;2023-04-03T13:51:21;3.80;97.60
11284;DHT22;5698;47.332;11.180;2023-04-03T13:53:51;3.60;98.10
11284;DHT22;5698;47.332;11.180;2023-04-03T13:56:26;3.50;98.40
11284;DHT22;5698;47.332;11.180;2023-04-03T13:59:04;3.20;97.90
11284;DHT22;5698;47.332;11.180;2023-04-03T14:01:43;3.00;99.20
11284;DHT22;5698;47.332;11.180;2023-04-03T14:04:14;3.00;99.90
11284;DHT22;5698;47.332;11.180;2023-04-03T14:06:42;3.30;99.50
11284;DHT22;5698;47.332;11.180;2023-04-03T14:09:09;3.50;98.80
11284;DHT22;5698;47.332;11.180;2023-04-03T14:11:37;3.60;99.10
11284;DHT22;5698;47.332;11.180;2023-04-03T14:14:13;3.50;98.90
11284;DHT22;5698;47.332;11.180;2023-04-03T14:16:42;3.60;98.80
11284;DHT22;5698;47.332;11.180;2023-04-03T14:19:18;3.50;99.10
11284;DHT22;5698;47.332;11.180;2023-04-03T14:21:46;3.40;99.10
11284;DHT22;5698;47.332;11.180;2023-04-03T14:24:13;3.40;99.80
11284;DHT22;5698;47.332;11.180;2023-04-03T14:26:40;3.30;99.80
11284;DHT22;5698;47.332;11.180;2023-04-03T14:29:11;3.30;99.70
11284;DHT22;5698;47.332;11.180;2023-04-03T14:31:39;3.40;99.90
11284;DHT22;5698;47.332;11.180;2023-04-03T14:34:06;3.10;99.90
11284;DHT22;5698;47.332;11.180;2023-04-03T14:36:33;3.10;99.90
11284;DHT22;5698;47.332;11.180;2023-04-03T14:39:00;3.10;99.90
11284;DHT22;5698;47.332;11.180;2023-04-03T14:41:28;3.00;99.90
11284;DHT22;5698;47.332;11.180;2023-04-03T14:43:55;3.00;99.90
11284;DHT22;5698;47.332;11.180;2023-04-03T14:46:27;3.00;99.90
11284;DHT22;5698;47.332;11.180;2023-04-03T14:48:55;2.90;99.90
11284;DHT22;5698;47.332;11.180;2023-04-03T14:51:22;2.80;99.90
11284;DHT22;5698;47.332;11.180;2023-04-03T14:53:50;2.80;99.90
11284;DHT22;5698;47.332;11.180;2023-04-03T14:56:19;2.80;99.90
11284;DHT22;5698;47.332;11.180;2023-04-03T14:58:47;2.80;99.90
11284;DHT22;5698;47.332;11.180;2023-04-03T15:01:16;2.90;99.90
11284;DHT22;5698;47.332;11.180;2023-04-03T15:03:44;2.80;99.90
11284;DHT22;5698;47.332;11.180;2023-04-03T15:06:12;2.70;99.80
11284;DHT22;5698;47.332;11.180;2023-04-03T15:08:40;2.50;99.90
11284;DHT22;5698;47.332;11.180;2023-04-03T15:11:08;2.50;99.90
11284;DHT22;5698;47.332;11.180;2023-04-03T15:13:35;2.40;99.90
11284;DHT22;5698;47.332;11.180;2023-04-03T15:16:03;2.40;99.90
11284;DHT22;5698;47.332;11.180;2023-04-03T15:18:35;2.30;99.90
11284;DHT22;5698;47.332;11.180;2023-04-03T15:21:04;2.30;99.90
11284;DHT22;5698;47.332;11.180;2023-04-03T15:23:31;2.30;99.90
11284;DHT22;5698;47.332;11.180;2023-04-03T15:25:59;2.20;99.90
11284;DHT22;5698;47.332;11.180;2023-04-03T15:28:28;2.20;99.90
11284;DHT22;5698;47.332;11.180;2023-04-03T15:30:57;2.20;99.90
11284;DHT22;5698;47.332;11.180;2023-04-03T15:33:24;2.00;99.90
11284;DHT22;5698;47.332;11.180;2023-04-03T15:35:51;1.80;99.90
11284;DHT22;5698;47.332;11.180;2023-04-03T15:38:20;1.90;99.90
11284;DHT22;5698;47.332;11.180;2023-04-03T15:40:47;1.90;99.90
11284;DHT22;5698;47.332;11.180;2023-04-03T15:43:14;1.90;99.90
11284;DHT22;5698;47.332;11.180;2023-04-03T15:45:42;1.90;99.90
11284;DHT22;5698;47.332;11.180;2023-04-03T15:48:10;1.90;99.90
11284;DHT22;5698;47.332;11.180;2023-04-03T15:50:38;1.90;99.90
11284;DHT22;5698;47.332;11.180;2023-04-03T15:53:06;1.90;99.90
11284;DHT22;5698;47.332;11.180;2023-04-03T15:55:37;1.90;99.90
11284;DHT22;5698;47.332;11.180;2023-04-03T15:58:04;1.90;99.90
11284;DHT22;5698;47.332;11.180;2023-04-03T16:00:31;1.90;99.90
11284;DHT22;5698;47.332;11.180;2023-04-03T16:03:00;1.80;99.90
11284;DHT22;5698;47.332;11.180;2023-04-03T16:05:30;1.80;99.90